createdAt,value
2019-03-25T00:01:18.429Z,102481.97
2019-03-25T00:03:47.673Z,102475.62
2019-03-25T00:06:16.845Z,102472.08
2019-03-25T00:08:45.978Z,102462.12
2019-03-25T00:11:15.149Z,102457.28
2019-03-25T00:13:44.327Z,102458.08
2019-03-25T00:16:13.556Z,102446.23
2019-03-25T00:18:42.703Z,102444.16
2019-03-25T00:21:11.866Z,102448.01
2019-03-25T00:23:41.022Z,102444.58
2019-03-25T00:26:10.182Z,102437.52
2019-03-25T00:28:39.338Z,102429.20
2019-03-25T00:31:08.502Z,102434.73
2019-03-25T00:33:37.656Z,102431.70
2019-03-25T00:36:06.834Z,102426.50
2019-03-25T00:38:35.978Z,102424.70
2019-03-25T00:41:05.715Z,102424.28
2019-03-25T00:43:39.869Z,102423.70
2019-03-25T00:46:16.113Z,102422.23
2019-03-25T00:48:52.706Z,102417.77
2019-03-25T00:51:22.257Z,102418.25
2019-03-25T00:53:54.025Z,102414.86
2019-03-25T00:56:24.841Z,102414.53
2019-03-25T00:59:00.758Z,102411.88
2019-03-25T01:01:33.244Z,102405.65
2019-03-25T01:04:05.388Z,102402.73
2019-03-25T01:06:40.347Z,102407.38
2019-03-25T01:09:11.161Z,102398.28
2019-03-25T01:11:49.347Z,102395.75
2019-03-25T01:14:19.637Z,102387.27
2019-03-25T01:16:53.123Z,102386.30
2019-03-25T01:19:25.991Z,102387.30
2019-03-25T01:21:59.030Z,102389.52
2019-03-25T01:24:29.851Z,102386.30
2019-03-25T01:27:04.805Z,102387.61
2019-03-25T01:29:33.986Z,102393.81
2019-03-25T01:32:03.155Z,102378.89
2019-03-25T01:34:32.302Z,102385.67
2019-03-25T01:37:01.485Z,102383.09
2019-03-25T01:39:30.919Z,102381.12
2019-03-25T01:42:00.068Z,102379.09
2019-03-25T01:44:29.280Z,102371.66
2019-03-25T01:46:58.414Z,102367.27
2019-03-25T01:49:27.639Z,102368.96
2019-03-25T01:51:56.814Z,102363.09
2019-03-25T01:54:25.962Z,102363.67
2019-03-25T01:56:55.128Z,102362.69
2019-03-25T01:59:24.279Z,102363.95
2019-03-25T02:01:53.430Z,102363.00
2019-03-25T02:04:22.582Z,102366.23
2019-03-25T02:06:51.719Z,102355.87
2019-03-25T02:09:20.923Z,102352.97
2019-03-25T02:11:54.144Z,102350.66
2019-03-25T02:14:26.156Z,102350.22
2019-03-25T02:16:55.288Z,102349.92
2019-03-25T02:19:24.440Z,102339.97
2019-03-25T02:21:53.619Z,102347.30
2019-03-25T02:24:22.774Z,102342.98
2019-03-25T02:26:52.046Z,102345.69
2019-03-25T02:29:21.194Z,102339.83
2019-03-25T02:31:50.360Z,102335.42
2019-03-25T02:34:19.506Z,102328.31
2019-03-25T02:36:48.732Z,102330.83
2019-03-25T02:39:17.898Z,102317.51
2019-03-25T02:41:47.063Z,102326.62
2019-03-25T02:44:16.239Z,102317.45
2019-03-25T02:46:45.383Z,102325.34
2019-03-25T02:49:14.535Z,102331.77
2019-03-25T02:51:43.698Z,102341.86
2019-03-25T02:54:12.856Z,102345.87
2019-03-25T02:56:42.030Z,102347.38
2019-03-25T02:59:11.154Z,102351.61
2019-03-25T03:01:40.331Z,102318.91
2019-03-25T03:04:09.477Z,102316.66
2019-03-25T03:06:38.620Z,102310.17
2019-03-25T03:09:09.430Z,102298.89
2019-03-25T03:11:38.682Z,102311.49
2019-03-25T03:14:08.284Z,102306.31
2019-03-25T03:16:37.458Z,102305.03
2019-03-25T03:19:06.593Z,102322.55
2019-03-25T03:21:35.758Z,102357.11
2019-03-25T03:24:04.904Z,102405.58
2019-03-25T03:26:34.043Z,102375.29
2019-03-25T03:29:03.273Z,102364.72
2019-03-25T03:31:32.438Z,102349.69
2019-03-25T03:34:01.669Z,102335.06
2019-03-25T03:36:30.850Z,102338.70
2019-03-25T03:38:59.999Z,102341.28
2019-03-25T03:41:29.226Z,102335.09
2019-03-25T03:44:00.708Z,102342.67
2019-03-25T03:46:29.261Z,102334.11
2019-03-25T03:48:58.432Z,102328.28
2019-03-25T03:51:27.597Z,102337.66
2019-03-25T03:53:56.844Z,102324.78
2019-03-25T03:56:26.021Z,102328.33
2019-03-25T03:58:55.183Z,102327.17
2019-03-25T04:01:24.335Z,102326.86
2019-03-25T04:03:53.515Z,102327.92
2019-03-25T04:06:22.664Z,102324.80
2019-03-25T04:08:51.836Z,102326.14
2019-03-25T04:11:20.983Z,102326.69
2019-03-25T04:13:50.252Z,102335.94
2019-03-25T04:16:19.509Z,102333.62
2019-03-25T04:18:48.684Z,102337.45
2019-03-25T04:21:17.857Z,102340.63
2019-03-25T04:23:47.015Z,102339.27
2019-03-25T04:26:27.635Z,102339.30
2019-03-25T04:28:47.115Z,102337.86
2019-03-25T04:31:16.266Z,102336.48
2019-03-25T04:33:45.433Z,102341.75
2019-03-25T04:36:14.594Z,102342.64
2019-03-25T04:38:45.390Z,102339.75
2019-03-25T04:41:14.656Z,102340.48
2019-03-25T04:43:43.804Z,102348.44
2019-03-25T04:46:13.020Z,102344.81
2019-03-25T04:48:42.182Z,102344.77
2019-03-25T04:51:11.361Z,102342.29
2019-03-25T04:53:40.550Z,102348.97
2019-03-25T04:56:10.103Z,102351.80
2019-03-25T04:58:39.251Z,102343.38
2019-03-25T05:01:08.479Z,102350.70
2019-03-25T05:03:37.647Z,102343.73
2019-03-25T05:06:06.820Z,102341.55
2019-03-25T05:08:35.973Z,102339.34
2019-03-25T05:11:05.201Z,102346.15
2019-03-25T05:13:34.370Z,102349.58
2019-03-25T05:16:03.527Z,102346.43
2019-03-25T05:18:32.680Z,102350.60
2019-03-25T05:21:01.843Z,102356.38
2019-03-25T05:23:31.002Z,102357.83
2019-03-25T05:26:00.175Z,102357.98
2019-03-25T05:28:29.352Z,102357.09
2019-03-25T05:30:58.513Z,102359.78
2019-03-25T05:33:27.688Z,102355.83
2019-03-25T05:35:56.943Z,102361.67
2019-03-25T05:38:26.095Z,102366.30
2019-03-25T05:40:55.268Z,102363.31
2019-03-25T05:43:24.423Z,102370.59
2019-03-25T05:45:55.199Z,102372.34
2019-03-25T05:48:24.355Z,102361.65
2019-03-25T05:50:53.526Z,102360.77
2019-03-25T05:53:22.684Z,102355.30
2019-03-25T05:55:52.152Z,102367.58
2019-03-25T05:58:21.377Z,102366.19
2019-03-25T06:00:50.701Z,102364.81
2019-03-25T06:03:19.862Z,102362.48
2019-03-25T06:05:49.025Z,102366.56
2019-03-25T06:08:18.213Z,102366.80
2019-03-25T06:10:47.361Z,102366.91
2019-03-25T06:13:16.585Z,102373.14
2019-03-25T06:15:45.732Z,102388.90
2019-03-25T06:18:14.899Z,102403.75
2019-03-25T06:20:44.057Z,102383.31
2019-03-25T06:23:13.318Z,102389.19
2019-03-25T06:25:42.524Z,102393.05
2019-03-25T06:28:11.703Z,102389.45
2019-03-25T06:30:40.854Z,102398.52
2019-03-25T06:33:12.725Z,102391.63
2019-03-25T06:35:40.909Z,102410.91
2019-03-25T06:38:10.250Z,102391.50
2019-03-25T06:40:39.401Z,102387.10
2019-03-25T06:43:08.592Z,102391.95
2019-03-25T06:45:37.735Z,102396.55
2019-03-25T06:48:06.888Z,102399.44
2019-03-25T06:50:36.081Z,102395.59
2019-03-25T06:53:05.220Z,102398.65
2019-03-25T06:55:34.951Z,102405.08
2019-03-25T06:58:04.120Z,102397.26
2019-03-25T07:00:33.293Z,102398.41
2019-03-25T07:03:02.429Z,102402.03
2019-03-25T07:05:31.785Z,102390.30
2019-03-25T07:08:00.954Z,102400.41
2019-03-25T07:10:37.681Z,102390.30
2019-03-25T07:13:06.893Z,102397.52
2019-03-25T07:15:36.072Z,102399.81
2019-03-25T07:18:05.693Z,102403.20
2019-03-25T07:20:34.869Z,102405.14
2019-03-25T07:23:04.038Z,102412.46
2019-03-25T07:25:33.181Z,102403.28
2019-03-25T07:28:02.344Z,102400.48
2019-03-25T07:30:31.519Z,102408.76
2019-03-25T07:33:00.733Z,102404.01
2019-03-25T07:35:31.858Z,102400.41
2019-03-25T07:38:05.864Z,102403.11
2019-03-25T07:40:39.555Z,102405.78
2019-03-25T07:43:16.132Z,102400.64
2019-03-25T07:45:45.392Z,102406.59
2019-03-25T07:48:14.577Z,102418.84
2019-03-25T07:50:43.720Z,102412.86
2019-03-25T07:53:17.078Z,102417.41
2019-03-25T07:55:46.291Z,102425.02
2019-03-25T07:58:17.540Z,102435.81
2019-03-25T08:00:46.853Z,102462.05
2019-03-25T08:03:16.016Z,102457.31
2019-03-25T08:05:45.174Z,102453.36
2019-03-25T08:08:14.323Z,102455.44
2019-03-25T08:10:43.488Z,102458.10
2019-03-25T08:13:12.719Z,102463.34
2019-03-25T08:15:41.982Z,102467.48
2019-03-25T08:18:11.140Z,102472.30
2019-03-25T08:20:40.297Z,102494.34
2019-03-25T08:23:09.593Z,102493.23
2019-03-25T08:25:38.744Z,102489.80
2019-03-25T08:28:07.903Z,102487.76
2019-03-25T08:30:37.050Z,102486.41
2019-03-25T08:33:06.298Z,102495.31
2019-03-25T08:35:35.519Z,102492.56
2019-03-25T08:38:04.665Z,102489.26
2019-03-25T08:40:33.886Z,102477.24
2019-03-25T08:43:03.363Z,102481.44
2019-03-25T08:45:32.527Z,102487.77
2019-03-25T08:48:01.672Z,102501.63
2019-03-25T08:50:30.851Z,102487.34
2019-03-25T08:53:00.005Z,102493.85
2019-03-25T08:55:29.162Z,102497.45
2019-03-25T08:57:58.332Z,102506.03
2019-03-25T09:00:27.502Z,102514.00
2019-03-25T09:02:56.662Z,102527.35
2019-03-25T09:05:25.829Z,102520.18
2019-03-25T09:07:55.003Z,102524.73
2019-03-25T09:10:24.150Z,102532.86
2019-03-25T09:12:53.379Z,102512.91
2019-03-25T09:15:22.536Z,102523.76
2019-03-25T09:17:51.685Z,102545.82
2019-03-25T09:20:20.869Z,102547.77
2019-03-25T09:22:50.012Z,102543.58
2019-03-25T09:25:19.197Z,102551.83
2019-03-25T09:27:48.367Z,102567.34
2019-03-25T09:30:53.917Z,102567.53
2019-03-25T09:33:23.093Z,102554.22
2019-03-25T09:35:52.294Z,102546.02
2019-03-25T09:38:21.496Z,102548.13
2019-03-25T09:40:50.660Z,102564.45
2019-03-25T09:43:19.839Z,102578.78
2019-03-25T09:45:48.999Z,102569.03
2019-03-25T09:48:18.175Z,102572.74
2019-03-25T09:50:53.292Z,102579.80
2019-03-25T09:53:26.218Z,102575.62
2019-03-25T09:55:57.026Z,102581.91
2019-03-25T09:58:36.089Z,102596.23
2019-03-25T10:03:50.972Z,102595.13
2019-03-25T10:06:23.085Z,102586.16
2019-03-25T10:08:55.526Z,102592.91
2019-03-25T10:11:27.030Z,102582.77
2019-03-25T10:13:56.191Z,102580.62
2019-03-25T10:16:25.449Z,102594.38
2019-03-25T10:18:54.602Z,102598.89
2019-03-25T10:21:23.770Z,102589.47
2019-03-25T10:23:52.976Z,102604.45
2019-03-25T10:26:22.238Z,102600.50
2019-03-25T10:28:51.397Z,102605.23
2019-03-25T10:31:20.597Z,102598.25
2019-03-25T10:33:49.766Z,102621.62
2019-03-25T10:36:18.932Z,102618.66
2019-03-25T10:38:48.094Z,102605.81
2019-03-25T10:41:17.273Z,102610.33
2019-03-25T10:43:46.436Z,102616.42
2019-03-25T10:46:15.587Z,102635.14
2019-03-25T10:48:45.138Z,102625.25
2019-03-25T10:51:14.441Z,102615.71
2019-03-25T10:53:43.603Z,102614.03
2019-03-25T10:56:12.838Z,102613.65
2019-03-25T10:58:42.012Z,102622.67
2019-03-25T11:01:11.183Z,102623.78
2019-03-25T11:03:40.350Z,102636.13
2019-03-25T11:06:09.514Z,102658.15
2019-03-25T11:08:38.674Z,102657.85
2019-03-25T11:11:07.987Z,102658.88
2019-03-25T11:13:37.154Z,102665.51
2019-03-25T11:16:06.400Z,102656.66
2019-03-25T11:18:35.562Z,102661.59
2019-03-25T11:21:04.720Z,102654.68
2019-03-25T11:23:33.871Z,102652.72
2019-03-25T11:26:03.052Z,102658.53
2019-03-25T11:28:32.220Z,102660.37
2019-03-25T11:31:01.460Z,102666.00
2019-03-25T11:33:30.609Z,102660.50
2019-03-25T11:35:59.786Z,102652.47
2019-03-25T11:38:48.588Z,102665.20
2019-03-25T11:41:18.857Z,102670.45
2019-03-25T11:43:53.096Z,102665.62
2019-03-25T11:46:23.248Z,102660.47
2019-03-25T11:48:58.386Z,102663.03
2019-03-25T11:51:49.795Z,102656.71
2019-03-25T11:54:18.933Z,102647.27
2019-03-25T11:56:48.092Z,102651.02
2019-03-25T11:59:18.859Z,102664.44
2019-03-25T12:01:48.187Z,102662.16
2019-03-25T12:04:17.362Z,102666.78
2019-03-25T12:06:46.518Z,102654.80
2019-03-25T12:09:15.686Z,102656.42
2019-03-25T12:11:44.926Z,102666.16
2019-03-25T12:14:14.082Z,102643.31
2019-03-25T12:16:43.262Z,102645.78
2019-03-25T12:19:12.435Z,102676.86
2019-03-25T12:21:41.609Z,102653.52
2019-03-25T12:24:11.038Z,102665.79
2019-03-25T12:26:40.229Z,102672.54
2019-03-25T12:29:09.397Z,102649.34
2019-03-25T12:31:38.559Z,102650.47
2019-03-25T12:34:07.775Z,102665.78
2019-03-25T12:36:36.963Z,102668.70
2019-03-25T12:39:07.393Z,102653.81
2019-03-25T12:41:36.572Z,102644.26
2019-03-25T12:44:05.734Z,102653.66
2019-03-25T12:46:34.892Z,102673.63
2019-03-25T12:49:04.062Z,102662.14
2019-03-25T12:51:33.286Z,102665.61
2019-03-25T12:54:02.499Z,102656.61
2019-03-25T12:56:31.702Z,102656.20
2019-03-25T12:59:01.003Z,102649.91
2019-03-25T13:01:30.192Z,102653.96
2019-03-25T13:03:59.460Z,102668.27
2019-03-25T13:06:28.641Z,102670.70
2019-03-25T13:09:00.030Z,102667.99
2019-03-25T13:11:28.716Z,102674.67
2019-03-25T13:13:57.891Z,102677.70
2019-03-25T13:16:27.068Z,102673.97
2019-03-25T13:18:56.243Z,102682.34
2019-03-25T13:21:25.416Z,102682.14
2019-03-25T13:23:54.583Z,102679.66
2019-03-25T13:26:23.820Z,102680.36
2019-03-25T13:29:01.468Z,102691.18
2019-03-25T13:31:24.002Z,102709.47
2019-03-25T13:33:53.176Z,102675.30
2019-03-25T13:36:22.351Z,102684.45
2019-03-25T13:38:51.532Z,102683.93
2019-03-25T13:41:20.696Z,102700.37
2019-03-25T13:43:49.903Z,102706.09
2019-03-25T13:46:19.099Z,102696.33
2019-03-25T13:48:48.400Z,102695.34
2019-03-25T13:51:17.653Z,102692.54
2019-03-25T13:53:46.828Z,102699.26
2019-03-25T13:56:15.987Z,102686.47
2019-03-25T13:58:45.175Z,102685.95
2019-03-25T14:01:14.358Z,102693.94
2019-03-25T14:03:43.519Z,102695.98
2019-03-25T14:06:12.725Z,102703.27
2019-03-25T14:08:41.914Z,102700.61
2019-03-25T14:11:11.070Z,102711.13
2019-03-25T14:13:48.689Z,102713.67
2019-03-25T14:16:11.151Z,102710.07
2019-03-25T14:18:40.362Z,102708.45
2019-03-25T14:21:25.271Z,102701.94
2019-03-25T14:23:54.408Z,102701.98
2019-03-25T14:26:23.609Z,102707.94
2019-03-25T14:28:52.872Z,102705.23
2019-03-25T14:31:22.028Z,102713.53
2019-03-25T14:33:51.239Z,102714.83
2019-03-25T14:36:20.448Z,102708.41
2019-03-25T14:38:49.615Z,102719.41
2019-03-25T14:41:18.793Z,102715.21
2019-03-25T14:43:48.030Z,102737.95
2019-03-25T14:46:17.215Z,102738.72
2019-03-25T14:48:46.384Z,102744.16
2019-03-25T14:51:15.547Z,102750.03
2019-03-25T14:53:45.498Z,102739.36
2019-03-25T14:56:15.006Z,102738.52
2019-03-25T14:58:44.182Z,102741.65
2019-03-25T15:01:13.340Z,102749.02
2019-03-25T15:03:42.512Z,102760.55
2019-03-25T15:06:11.683Z,102755.75
2019-03-25T15:08:40.884Z,102759.94
2019-03-25T15:11:10.080Z,102760.23
2019-03-25T15:13:39.243Z,102771.98
2019-03-25T15:16:08.414Z,102788.89
2019-03-25T15:18:37.584Z,102790.95
2019-03-25T15:21:06.754Z,102793.36
2019-03-25T15:23:35.941Z,102796.27
2019-03-25T15:26:05.107Z,102785.94
2019-03-25T15:28:34.267Z,102789.33
2019-03-25T15:31:03.448Z,102793.05
2019-03-25T15:33:32.621Z,102796.16
2019-03-25T15:36:01.792Z,102797.70
2019-03-25T15:38:30.952Z,102799.91
2019-03-25T15:41:00.124Z,102805.87
2019-03-25T15:43:31.948Z,102808.25
2019-03-25T15:46:01.176Z,102804.52
2019-03-25T15:48:30.406Z,102806.13
2019-03-25T15:51:11.123Z,102804.02
2019-03-25T15:53:40.357Z,102806.66
2019-03-25T15:56:09.540Z,102801.61
2019-03-25T15:58:38.801Z,102807.28
2019-03-25T16:01:07.942Z,102815.33
2019-03-25T16:03:39.935Z,102807.98
2019-03-25T16:06:09.081Z,102819.41
2019-03-25T16:08:45.688Z,102813.81
2019-03-25T16:11:14.988Z,102816.89
2019-03-25T16:13:44.148Z,102837.84
2019-03-25T16:16:13.373Z,102831.91
2019-03-25T16:18:42.563Z,102827.48
2019-03-25T16:21:11.796Z,102828.29
2019-03-25T16:23:41.058Z,102822.17
2019-03-25T16:26:10.191Z,102838.41
2019-03-25T16:28:39.366Z,102845.47
2019-03-25T16:31:08.564Z,102851.20
2019-03-25T16:33:37.815Z,102846.42
2019-03-25T16:36:06.974Z,102850.87
2019-03-25T16:38:36.146Z,102859.47
2019-03-25T16:41:05.330Z,102857.03
2019-03-25T16:43:36.128Z,102864.16
2019-03-25T16:46:12.351Z,102867.22
2019-03-25T16:48:46.128Z,102868.43
2019-03-25T16:51:15.293Z,102862.69
2019-03-25T16:53:44.466Z,102875.52
2019-03-25T16:56:13.799Z,102880.50
2019-03-25T16:58:43.069Z,102889.48
2019-03-25T17:01:12.251Z,102887.02
2019-03-25T17:03:41.441Z,102890.36
2019-03-25T17:06:10.781Z,102892.02
2019-03-25T17:08:39.931Z,102893.80
2019-03-25T17:11:09.157Z,102898.00
2019-03-25T17:13:38.318Z,102905.61
2019-03-25T17:16:07.515Z,102919.88
2019-03-25T17:18:36.661Z,102897.81
2019-03-25T17:21:05.822Z,102915.08
2019-03-25T17:23:34.971Z,102917.57
2019-03-25T17:26:04.131Z,102924.27
2019-03-25T17:28:33.357Z,102924.06
2019-03-25T17:31:03.243Z,102937.72
2019-03-25T17:33:32.574Z,102931.25
2019-03-25T17:36:01.741Z,102941.48
2019-03-25T17:38:30.922Z,102947.46
2019-03-25T17:41:00.157Z,102955.41
2019-03-25T17:43:29.330Z,102954.22
2019-03-25T17:45:58.488Z,102968.59
2019-03-25T17:48:27.670Z,102975.65
2019-03-25T17:50:56.855Z,102973.69
2019-03-25T17:53:26.091Z,102981.44
2019-03-25T17:55:55.232Z,102988.17
2019-03-25T17:58:24.383Z,102981.92
2019-03-25T18:01:00.844Z,102985.84
2019-03-25T18:03:30.002Z,102987.98
2019-03-25T18:05:59.165Z,102997.05
2019-03-25T18:08:28.323Z,103000.23
2019-03-25T18:10:57.478Z,103004.58
2019-03-25T18:13:26.722Z,103008.23
2019-03-25T18:15:55.905Z,103019.37
2019-03-25T18:18:25.053Z,103011.81
2019-03-25T18:20:54.430Z,103022.29
2019-03-25T18:23:23.672Z,103019.72
2019-03-25T18:25:52.815Z,103020.90
2019-03-25T18:28:22.097Z,103027.33
2019-03-25T18:30:51.268Z,103031.44
2019-03-25T18:33:20.426Z,103034.69
2019-03-25T18:35:49.886Z,103037.59
2019-03-25T18:38:19.117Z,103044.38
2019-03-25T18:40:48.273Z,103053.38
2019-03-25T18:43:24.572Z,103050.88
2019-03-25T18:46:00.295Z,103057.80
2019-03-25T18:48:29.600Z,103062.87
2019-03-25T18:51:02.020Z,103065.28
2019-03-25T18:53:33.598Z,103063.91
2019-03-25T18:56:08.612Z,103067.14
2019-03-25T18:58:38.364Z,103072.35
2019-03-25T19:01:07.535Z,103072.91
2019-03-25T19:03:36.687Z,103082.56
2019-03-25T19:06:13.662Z,103076.18
2019-03-25T19:08:42.848Z,103077.77
2019-03-25T19:11:19.017Z,103082.30
2019-03-25T19:13:45.657Z,103082.84
2019-03-25T19:16:22.486Z,103084.13
2019-03-25T19:18:51.321Z,103087.41
2019-03-25T19:21:20.745Z,103092.60
2019-03-25T19:23:50.022Z,103091.10
2019-03-25T19:26:19.167Z,103097.61
2019-03-25T19:28:48.528Z,103102.44
2019-03-25T19:31:17.659Z,103107.22
2019-03-25T19:33:46.822Z,103107.36
2019-03-25T19:36:15.996Z,103111.72
2019-03-25T19:38:45.421Z,103111.24
2019-03-25T19:41:14.602Z,103109.52
2019-03-25T19:43:43.912Z,103118.20
2019-03-25T19:46:15.537Z,103117.43
2019-03-25T19:48:48.275Z,103127.87
2019-03-25T19:51:19.020Z,103131.66
2019-03-25T19:53:48.186Z,103141.50
2019-03-25T19:56:17.343Z,103145.38
2019-03-25T19:58:46.499Z,103144.72
2019-03-25T20:01:15.741Z,103152.32
2019-03-25T20:03:44.917Z,103153.92
2019-03-25T20:06:25.508Z,103153.27
2019-03-25T20:08:45.073Z,103153.86
2019-03-25T20:11:15.867Z,103152.25
2019-03-25T20:13:45.005Z,103158.34
2019-03-25T20:16:14.339Z,103156.70
2019-03-25T20:18:43.491Z,103164.66
2019-03-25T20:21:12.648Z,103162.06
2019-03-25T20:23:41.880Z,103174.59
2019-03-25T20:26:11.140Z,103179.88
2019-03-25T20:28:40.304Z,103181.86
2019-03-25T20:31:09.513Z,103179.40
2019-03-25T20:33:38.722Z,103187.03
2019-03-25T20:36:07.931Z,103191.38
2019-03-25T20:38:37.079Z,103195.48
2019-03-25T20:41:06.252Z,103197.00
2019-03-25T20:43:35.532Z,103200.16
2019-03-25T20:46:05.001Z,103200.63
2019-03-25T20:48:34.231Z,103199.02
2019-03-25T20:51:03.424Z,103201.12
2019-03-25T20:53:32.569Z,103211.64
2019-03-25T20:56:01.812Z,103217.77
2019-03-25T20:58:30.978Z,103222.21
2019-03-25T21:01:00.162Z,103231.09
2019-03-25T21:03:29.386Z,103231.44
2019-03-25T21:06:00.687Z,103239.01
2019-03-25T21:08:29.917Z,103238.12
2019-03-25T21:10:59.102Z,103236.90
2019-03-25T21:13:32.225Z,103241.26
2019-03-25T21:16:01.439Z,103239.73
2019-03-25T21:18:32.213Z,103240.92
2019-03-25T21:21:10.444Z,103255.82
2019-03-25T21:23:39.607Z,103260.64
2019-03-25T21:26:11.003Z,103259.39
2019-03-25T21:28:46.317Z,103262.30
2019-03-25T21:31:16.799Z,103263.33
2019-03-25T21:33:45.977Z,103270.20
2019-03-25T21:36:15.155Z,103277.37
2019-03-25T21:38:46.117Z,103283.29
2019-03-25T21:41:19.603Z,103285.34
2019-03-25T21:43:58.995Z,103289.45
2019-03-25T21:46:30.699Z,103287.25
2019-03-25T21:49:03.757Z,103285.70
2019-03-25T21:51:42.137Z,103286.55
2019-03-25T21:54:11.265Z,103290.23
2019-03-25T21:56:40.517Z,103285.06
2019-03-25T21:59:09.744Z,103285.88
2019-03-25T22:01:38.964Z,103287.28
2019-03-25T22:04:08.166Z,103295.83
2019-03-25T22:06:37.328Z,103292.52
2019-03-25T22:09:07.315Z,103297.98
2019-03-25T22:11:36.645Z,103299.86
2019-03-25T22:14:05.798Z,103304.23
2019-03-25T22:16:34.958Z,103298.54
2019-03-25T22:19:04.122Z,103300.52
2019-03-25T22:21:33.298Z,103302.84
2019-03-25T22:24:02.479Z,103306.19
2019-03-25T22:26:31.705Z,103302.42
2019-03-25T22:29:00.934Z,103305.81
2019-03-25T22:31:30.116Z,103304.98
2019-03-25T22:33:59.275Z,103301.30
2019-03-25T22:36:28.443Z,103302.92
2019-03-25T22:38:57.587Z,103304.80
2019-03-25T22:41:26.784Z,103305.01
2019-03-25T22:43:55.954Z,103302.62
2019-03-25T22:46:25.111Z,103306.66
2019-03-25T22:48:54.264Z,103316.97
2019-03-25T22:51:23.424Z,103320.34
2019-03-25T22:53:52.592Z,103320.16
2019-03-25T22:56:21.764Z,103329.51
2019-03-25T22:58:50.986Z,103330.58
2019-03-25T23:01:20.152Z,103331.55
2019-03-25T23:03:49.311Z,103333.84
2019-03-25T23:06:18.485Z,103335.95
2019-03-25T23:08:47.671Z,103337.18
2019-03-25T23:11:16.886Z,103330.05
2019-03-25T23:13:46.042Z,103332.73
2019-03-25T23:16:15.325Z,103331.14
2019-03-25T23:18:44.486Z,103331.64
2019-03-25T23:21:13.675Z,103334.55
2019-03-25T23:23:42.900Z,103340.71
2019-03-25T23:26:12.056Z,103343.55
2019-03-25T23:28:41.202Z,103341.84
2019-03-25T23:31:10.697Z,103336.44
2019-03-25T23:33:51.696Z,103340.58
2019-03-25T23:36:10.744Z,103341.30
2019-03-25T23:38:39.898Z,103342.43
2019-03-25T23:41:09.058Z,103345.01
2019-03-25T23:43:40.591Z,103352.02
2019-03-25T23:46:28.983Z,103356.31
2019-03-25T23:49:07.331Z,103358.86
2019-03-25T23:51:38.217Z,103363.98
2019-03-25T23:54:18.036Z,103370.64
2019-03-25T23:56:50.470Z,103367.30
2019-03-25T23:59:26.731Z,103369.47
